TAF and METAR

Decoding for American and Canadian METARs and TAFs is not fully implemented.

Could not understand the following METAR

KVRB 311153Z AUTO 00000KT 10SM CLR 25/23 A3002 RMK AO2 SLP165 T02500228 10250 20217 53015

TAF for Vero Beach Municipal Airport

KVRB 311127Z 3112/0112 00000KT P6SM FEW250 FM311400 25006KT P6SM SCT030 SCT200 FM311630 10009KT P6SM VCTS SCT035CB SCT250 TEMPO 3117/3119 3SM TSRA BKN035CB FM010200 VRB03KT P6SM SCT100 BKN250
Report created 31. mai 13:27

between 31. mai 14:00 - 1. mai 14:00

wind 0 knots from N (000°)
Vero Beach Municipal Airport in United States of America at 10m

Latest 5 airports